Time;durP1;ratioP1;P1;durP2;ratioP2;P2;SDS_P1;SDS_P2;PMS_P1;PMS_P2;Temp;Humidity;BMP_temperature;BMP_pressure;BME280_temperature;BME280_humidity;BME280_pressure;Samples;Min_cycle;Max_cycle;Signal;HPM_P1;HPM_P2
2023/03/08 00:00:27;;;;;;;2.42;0.82;;;;;;;;;;4838932;29;20060;-75
2023/03/08 00:02:55;;;;;;;2.08;0.93;;;;;;;;;;4842558;29;20111;-75
2023/03/08 00:05:21;;;;;;;2.03;0.73;;;;;;;;;;4833211;29;20534;-75
2023/03/08 00:07:47;;;;;;;3.95;1.10;;;;;;;;;;4841974;29;20112;-76
2023/03/08 00:10:13;;;;;;;3.13;1.08;;;;;;;;;;4840478;29;20056;-75
2023/03/08 00:12:39;;;;;;;3.25;1.60;;;;;;;;;;4832273;29;20052;-75
2023/03/08 00:15:06;;;;;;;4.20;2.40;;;;;;;;;;4836996;29;20048;-75
2023/03/08 00:17:35;;;;;;;7.25;3.10;;;;;;;;;;4840131;29;20741;-76
2023/03/08 00:20:01;;;;;;;12.52;4.97;;;;;;;;;;4839289;29;20131;-75
2023/03/08 00:22:27;;;;;;;6.63;2.47;;;;;;;;;;4840267;29;20675;-75
2023/03/08 00:24:53;;;;;;;9.55;1.83;;;;;;;;;;4840097;29;20057;-75
2023/03/08 00:27:19;;;;;;;3.65;1.90;;;;;;;;;;4839647;29;20124;-75
2023/03/08 00:29:45;;;;;;;3.08;1.52;;;;;;;;;;4843213;29;20073;-75
2023/03/08 00:32:11;;;;;;;3.38;1.65;;;;;;;;;;4847843;29;20052;-76
2023/03/08 00:34:37;;;;;;;1.95;1.48;;;;;;;;;;4838867;29;20064;-76
2023/03/08 00:37:03;;;;;;;3.35;1.88;;;;;;;;;;4839005;29;20585;-76
2023/03/08 00:39:29;;;;;;;3.10;2.05;;;;;;;;;;4821054;29;20565;-76
2023/03/08 00:41:55;;;;;;;4.20;2.30;;;;;;;;;;4829314;29;20049;-76
2023/03/08 00:44:21;;;;;;;3.75;2.00;;;;;;;;;;4839890;29;20045;-76
2023/03/08 00:46:47;;;;;;;3.88;2.05;;;;;;;;;;4839490;29;20532;-76
2023/03/08 00:49:13;;;;;;;2.05;1.58;;;;;;;;;;4839562;29;20434;-76
2023/03/08 00:51:39;;;;;;;5.13;2.08;;;;;;;;;;4840474;29;20129;-76
2023/03/08 00:54:06;;;;;;;4.53;1.75;;;;;;;;;;4824664;29;20038;-76
2023/03/08 00:56:32;;;;;;;1.80;1.17;;;;;;;;;;4830716;29;20061;-76
2023/03/08 00:58:58;;;;;;;7.95;1.48;;;;;;;;;;4829161;29;21724;-76
2023/03/08 01:01:24;;;;;;;2.03;1.38;;;;;;;;;;4834775;29;20471;-76
2023/03/08 01:03:50;;;;;;;3.58;1.38;;;;;;;;;;4832685;29;20045;-75
2023/03/08 01:06:16;;;;;;;3.45;1.15;;;;;;;;;;4831067;29;20037;-75
2023/03/08 01:08:43;;;;;;;6.75;1.70;;;;;;;;;;4836003;29;20659;-75
2023/03/08 01:11:15;;;;;;;5.55;1.27;;;;;;;;;;4835285;29;20048;-75
2023/03/08 01:13:41;;;;;;;2.55;1.20;;;;;;;;;;4844476;29;20132;-75
2023/03/08 01:16:13;;;;;;;1.85;1.45;;;;;;;;;;4842331;29;20483;-74
2023/03/08 01:18:39;;;;;;;5.22;1.30;;;;;;;;;;4842297;29;20056;-75
2023/03/08 01:21:05;;;;;;;2.85;1.27;;;;;;;;;;4833009;29;20051;-75
2023/03/08 01:23:31;;;;;;;2.05;1.20;;;;;;;;;;4842077;29;20133;-75
2023/03/08 01:25:58;;;;;;;3.15;1.40;;;;;;;;;;4842914;29;20050;-75
2023/03/08 01:28:37;;;;;;;3.83;1.70;;;;;;;;;;4828525;29;20060;-75
2023/03/08 01:31:07;;;;;;;8.18;1.60;;;;;;;;;;4840865;29;20112;-76
2023/03/08 01:33:47;;;;;;;3.72;1.40;;;;;;;;;;4847553;29;20131;-75
2023/03/08 01:36:14;;;;;;;2.50;1.35;;;;;;;;;;4846930;29;20052;-75
2023/03/08 01:38:40;;;;;;;4.22;1.40;;;;;;;;;;4845404;29;20474;-75
2023/03/08 01:41:07;;;;;;;6.05;1.42;;;;;;;;;;4842073;29;20132;-75
2023/03/08 01:43:35;;;;;;;2.15;1.20;;;;;;;;;;4828507;29;20167;-75
2023/03/08 01:46:15;;;;;;;6.93;1.40;;;;;;;;;;4839088;29;20613;-75
2023/03/08 01:49:00;;;;;;;2.90;1.58;;;;;;;;;;4843106;29;20109;-75
2023/03/08 01:51:30;;;;;;;3.30;1.40;;;;;;;;;;4843859;29;20049;-75
2023/03/08 01:53:57;;;;;;;12.38;1.70;;;;;;;;;;4843415;29;20074;-76
2023/03/08 01:56:24;;;;;;;3.70;1.40;;;;;;;;;;4831864;29;20061;-75
2023/03/08 01:58:50;;;;;;;7.38;1.42;;;;;;;;;;4861593;29;20140;-75
2023/03/08 02:01:18;;;;;;;2.50;1.30;;;;;;;;;;4846618;29;20628;-75
2023/03/08 02:03:44;;;;;;;4.03;1.33;;;;;;;;;;4845968;29;20053;-75
2023/03/08 02:06:12;;;;;;;3.33;1.90;;;;;;;;;;4843732;29;20049;-75
2023/03/08 02:08:38;;;;;;;1.88;1.33;;;;;;;;;;4830835;29;20052;-75
2023/03/08 02:11:04;;;;;;;1.88;1.48;;;;;;;;;;4844037;29;20040;-75
2023/03/08 02:13:30;;;;;;;4.85;1.20;;;;;;;;;;4843960;29;20469;-76
2023/03/08 02:15:58;;;;;;;2.20;1.20;;;;;;;;;;4837719;29;20049;-76
2023/03/08 02:18:24;;;;;;;2.55;1.38;;;;;;;;;;4841967;29;21621;-76
2023/03/08 02:20:50;;;;;;;5.38;1.50;;;;;;;;;;4824907;29;20053;-76
2023/03/08 02:23:21;;;;;;;1.42;1.20;;;;;;;;;;4842031;29;20076;-76
2023/03/08 02:25:54;;;;;;;3.30;1.20;;;;;;;;;;4845321;29;20067;-76
2023/03/08 02:28:21;;;;;;;6.07;1.77;;;;;;;;;;4843252;29;20113;-76
2023/03/08 02:30:48;;;;;;;1.92;1.30;;;;;;;;;;4848179;29;21117;-74
2023/03/08 02:33:14;;;;;;;2.08;1.15;;;;;;;;;;4839505;29;20466;-76
2023/03/08 02:35:42;;;;;;;3.60;1.38;;;;;;;;;;4841119;29;20417;-75
2023/03/08 02:38:09;;;;;;;4.63;1.10;;;;;;;;;;4849389;29;20670;-75
2023/03/08 02:40:36;;;;;;;10.85;1.38;;;;;;;;;;4828727;29;20060;-75
2023/03/08 02:43:02;;;;;;;3.80;1.17;;;;;;;;;;4825286;29;20445;-76
2023/03/08 02:45:28;;;;;;;7.28;1.88;;;;;;;;;;4841579;29;20052;-75
2023/03/08 02:47:54;;;;;;;3.13;2.22;;;;;;;;;;4840476;29;20107;-75
2023/03/08 02:50:20;;;;;;;5.22;1.45;;;;;;;;;;4847456;29;20524;-75
2023/03/08 02:52:46;;;;;;;2.88;1.10;;;;;;;;;;4840117;29;20040;-75
2023/03/08 02:55:13;;;;;;;3.28;1.25;;;;;;;;;;4841605;29;20044;-75
2023/03/08 02:57:39;;;;;;;3.65;1.60;;;;;;;;;;4848530;29;20589;-76
2023/03/08 03:00:05;;;;;;;5.32;1.38;;;;;;;;;;4843094;29;20260;-75
2023/03/08 03:02:34;;;;;;;3.97;1.30;;;;;;;;;;4834953;29;20049;-75
2023/03/08 03:05:02;;;;;;;9.02;1.40;;;;;;;;;;4843721;29;20100;-75
2023/03/08 03:07:28;;;;;;;3.42;1.60;;;;;;;;;;4844830;29;20135;-75
2023/03/08 03:09:54;;;;;;;4.88;1.48;;;;;;;;;;4862203;29;20045;-75
2023/03/08 03:12:20;;;;;;;8.05;2.25;;;;;;;;;;4843754;29;20112;-75
2023/03/08 03:14:46;;;;;;;8.88;1.98;;;;;;;;;;4826158;29;20045;-76
2023/03/08 03:17:12;;;;;;;3.05;1.45;;;;;;;;;;4841961;29;20060;-76
2023/03/08 03:19:38;;;;;;;5.55;1.60;;;;;;;;;;4849396;29;20052;-76
2023/03/08 03:22:04;;;;;;;2.75;1.77;;;;;;;;;;4845275;29;20062;-76
2023/03/08 03:24:30;;;;;;;1.67;1.58;;;;;;;;;;4855292;29;20084;-76
2023/03/08 03:26:56;;;;;;;8.63;1.65;;;;;;;;;;4837162;29;20997;-76
2023/03/08 03:29:22;;;;;;;4.53;1.40;;;;;;;;;;4852476;29;21195;-76
2023/03/08 03:31:49;;;;;;;2.25;1.40;;;;;;;;;;4822895;29;20179;-76
2023/03/08 03:34:15;;;;;;;3.38;1.38;;;;;;;;;;4837768;29;20055;-76
2023/03/08 03:36:41;;;;;;;4.20;1.20;;;;;;;;;;4826359;29;20054;-76
2023/03/08 03:39:07;;;;;;;4.28;1.40;;;;;;;;;;4858265;29;20051;-75
2023/03/08 03:41:33;;;;;;;4.53;1.23;;;;;;;;;;4837000;29;22023;-76
2023/03/08 03:43:59;;;;;;;11.63;1.63;;;;;;;;;;4835948;29;20061;-76
2023/03/08 03:46:25;;;;;;;3.72;1.40;;;;;;;;;;4834771;29;20102;-76
2023/03/08 03:48:51;;;;;;;4.63;1.52;;;;;;;;;;4834017;29;20052;-75
2023/03/08 03:51:19;;;;;;;3.58;1.48;;;;;;;;;;4834486;29;20068;-76
2023/03/08 03:53:45;;;;;;;4.65;1.48;;;;;;;;;;4833336;29;20964;-76
2023/03/08 03:56:14;;;;;;;5.32;1.67;;;;;;;;;;4837512;29;20060;-75
2023/03/08 03:58:41;;;;;;;3.78;1.60;;;;;;;;;;4842789;29;20863;-76
2023/03/08 04:01:08;;;;;;;3.25;1.60;;;;;;;;;;4840528;29;20513;-76
2023/03/08 04:03:34;;;;;;;4.78;1.60;;;;;;;;;;4824975;29;20794;-76
2023/03/08 04:06:07;;;;;;;3.92;1.10;;;;;;;;;;4841425;29;20481;-76
2023/03/08 04:08:33;;;;;;;4.30;1.13;;;;;;;;;;4839786;29;20051;-76
2023/03/08 04:11:00;;;;;;;1.23;0.60;;;;;;;;;;4824544;29;20251;-76
2023/03/08 04:13:26;;;;;;;4.03;0.50;;;;;;;;;;4838531;29;20061;-76
2023/03/08 04:15:52;;;;;;;2.22;0.50;;;;;;;;;;4824033;29;20045;-76
2023/03/08 04:18:18;;;;;;;1.67;0.60;;;;;;;;;;4838423;29;20045;-76
2023/03/08 04:20:45;;;;;;;0.95;0.88;;;;;;;;;;4840090;29;20060;-76
2023/03/08 04:23:11;;;;;;;7.25;0.80;;;;;;;;;;4837709;29;20592;-75
2023/03/08 04:25:37;;;;;;;3.08;1.05;;;;;;;;;;4840254;29;20077;-75
2023/03/08 04:28:04;;;;;;;2.38;0.60;;;;;;;;;;4826578;29;21444;-75
2023/03/08 04:30:30;;;;;;;3.00;0.80;;;;;;;;;;4856067;29;20172;-75
2023/03/08 04:32:56;;;;;;;4.93;1.10;;;;;;;;;;4823143;29;20060;-76
2023/03/08 04:35:22;;;;;;;2.20;1.15;;;;;;;;;;4839776;29;20045;-75
2023/03/08 04:37:48;;;;;;;3.38;1.17;;;;;;;;;;4847946;29;20076;-76
2023/03/08 04:40:14;;;;;;;4.15;1.35;;;;;;;;;;4843183;29;20048;-76
2023/03/08 04:42:40;;;;;;;3.67;1.45;;;;;;;;;;4824640;29;20056;-76
2023/03/08 04:45:07;;;;;;;2.42;1.08;;;;;;;;;;4843374;29;20100;-77
2023/03/08 04:47:33;;;;;;;4.50;1.23;;;;;;;;;;4852688;29;20068;-76
2023/03/08 04:49:59;;;;;;;4.55;1.20;;;;;;;;;;4840583;29;20044;-75
2023/03/08 04:52:25;;;;;;;5.00;1.40;;;;;;;;;;4837206;29;20052;-76
2023/03/08 04:54:51;;;;;;;7.05;1.90;;;;;;;;;;4855065;29;20075;-76
2023/03/08 04:57:17;;;;;;;8.73;2.00;;;;;;;;;;4855729;29;20056;-76
2023/03/08 04:59:44;;;;;;;5.50;2.03;;;;;;;;;;4836636;29;20227;-76
2023/03/08 05:02:10;;;;;;;5.93;2.05;;;;;;;;;;4839930;29;20053;-76
2023/03/08 05:04:36;;;;;;;4.65;1.85;;;;;;;;;;4847657;29;20922;-76
2023/03/08 05:07:02;;;;;;;5.95;1.80;;;;;;;;;;4847249;29;20068;-75
2023/03/08 05:09:28;;;;;;;4.40;1.42;;;;;;;;;;4833049;29;20100;-76
2023/03/08 05:11:54;;;;;;;4.13;1.40;;;;;;;;;;4839610;29;20055;-75
2023/03/08 05:14:20;;;;;;;3.25;1.15;;;;;;;;;;4822334;29;20045;-75
2023/03/08 05:16:47;;;;;;;8.15;2.08;;;;;;;;;;4831484;29;20565;-76
2023/03/08 05:19:13;;;;;;;2.67;1.35;;;;;;;;;;4845049;29;20127;-76
2023/03/08 05:21:39;;;;;;;5.43;1.52;;;;;;;;;;4847153;29;20084;-76
2023/03/08 05:24:05;;;;;;;5.03;1.55;;;;;;;;;;4845860;29;20095;-75
2023/03/08 05:26:31;;;;;;;2.80;1.38;;;;;;;;;;4862120;29;20048;-76
2023/03/08 05:29:00;;;;;;;2.90;1.75;;;;;;;;;;4845944;29;20053;-76
2023/03/08 05:31:26;;;;;;;3.95;1.90;;;;;;;;;;4845752;29;20041;-75
2023/03/08 05:33:52;;;;;;;2.13;1.40;;;;;;;;;;4829571;29;20165;-75
2023/03/08 05:36:19;;;;;;;1.98;1.52;;;;;;;;;;4842416;29;20584;-76
2023/03/08 05:38:45;;;;;;;1.30;1.15;;;;;;;;;;4842446;29;20057;-76
2023/03/08 05:41:12;;;;;;;4.22;1.50;;;;;;;;;;4829932;29;20052;-76
2023/03/08 05:43:38;;;;;;;5.57;1.83;;;;;;;;;;4844759;29;20045;-76
2023/03/08 05:46:06;;;;;;;4.63;1.52;;;;;;;;;;4859427;29;20104;-76
2023/03/08 05:48:33;;;;;;;3.90;1.75;;;;;;;;;;4847691;29;20052;-77
2023/03/08 05:50:59;;;;;;;3.65;1.20;;;;;;;;;;4843550;29;20617;-76
2023/03/08 05:53:25;;;;;;;6.45;1.75;;;;;;;;;;4847560;29;20167;-76
2023/03/08 05:55:54;;;;;;;6.50;1.70;;;;;;;;;;4831860;29;20171;-76
2023/03/08 05:58:20;;;;;;;3.42;1.73;;;;;;;;;;4848765;29;20673;-76
2023/03/08 06:00:46;;;;;;;5.25;1.77;;;;;;;;;;4851558;29;20061;-76
2023/03/08 06:03:12;;;;;;;3.83;1.70;;;;;;;;;;4851730;29;20052;-75
2023/03/08 06:05:38;;;;;;;4.22;1.58;;;;;;;;;;4860412;29;20584;-75
2023/03/08 06:08:04;;;;;;;9.75;2.53;;;;;;;;;;4854449;29;20096;-75
2023/03/08 06:10:30;;;;;;;2.55;1.48;;;;;;;;;;4854319;29;20049;-75
2023/03/08 06:12:57;;;;;;;1.80;1.42;;;;;;;;;;4852991;29;20159;-76
2023/03/08 06:15:23;;;;;;;6.57;2.08;;;;;;;;;;4864833;29;20508;-77
2023/03/08 06:17:51;;;;;;;4.18;1.80;;;;;;;;;;4839785;29;20052;-77
2023/03/08 06:20:18;;;;;;;4.47;1.75;;;;;;;;;;4851814;29;20139;-77
2023/03/08 06:22:44;;;;;;;6.75;1.80;;;;;;;;;;4852988;29;20620;-76
2023/03/08 06:25:10;;;;;;;3.30;1.70;;;;;;;;;;4851670;29;20134;-76
2023/03/08 06:27:36;;;;;;;3.67;1.70;;;;;;;;;;4849304;29;20083;-76
2023/03/08 06:30:02;;;;;;;7.13;1.90;;;;;;;;;;4837030;29;20041;-76
2023/03/08 06:32:28;;;;;;;8.80;1.92;;;;;;;;;;4848889;29;20135;-76
2023/03/08 06:34:54;;;;;;;10.73;1.90;;;;;;;;;;4852006;29;20056;-76
2023/03/08 06:37:20;;;;;;;2.58;1.60;;;;;;;;;;4851126;29;20063;-76
2023/03/08 06:39:46;;;;;;;4.63;1.50;;;;;;;;;;4852184;29;20048;-76
2023/03/08 06:42:12;;;;;;;4.03;1.60;;;;;;;;;;4854472;29;20044;-76
2023/03/08 06:44:38;;;;;;;5.78;2.05;;;;;;;;;;4857975;29;20099;-75
2023/03/08 06:47:04;;;;;;;2.08;1.30;;;;;;;;;;4859693;29;20414;-74
2023/03/08 06:49:30;;;;;;;4.40;1.80;;;;;;;;;;4840497;29;20049;-75
2023/03/08 06:51:57;;;;;;;5.25;1.77;;;;;;;;;;4849042;29;20049;-76
2023/03/08 06:54:23;;;;;;;6.20;2.05;;;;;;;;;;4859267;29;20150;-75
2023/03/08 06:56:49;;;;;;;5.57;2.15;;;;;;;;;;4849969;29;20060;-75
2023/03/08 06:59:15;;;;;;;4.93;1.63;;;;;;;;;;4850214;29;20053;-75
2023/03/08 07:01:41;;;;;;;6.07;2.03;;;;;;;;;;4851706;29;20044;-75
2023/03/08 07:04:07;;;;;;;5.20;1.95;;;;;;;;;;4845406;29;20131;-76
2023/03/08 07:06:33;;;;;;;4.18;1.80;;;;;;;;;;4828666;29;21797;-76
2023/03/08 07:08:59;;;;;;;3.05;1.80;;;;;;;;;;4850596;29;20084;-75
2023/03/08 07:11:27;;;;;;;2.13;1.63;;;;;;;;;;4852947;29;20513;-76
2023/03/08 07:13:53;;;;;;;4.60;2.05;;;;;;;;;;4853243;29;20075;-75
2023/03/08 07:16:20;;;;;;;6.05;2.10;;;;;;;;;;4831193;29;20478;-76
2023/03/08 07:18:46;;;;;;;6.28;2.20;;;;;;;;;;4844518;29;20163;-76
2023/03/08 07:21:12;;;;;;;2.10;1.63;;;;;;;;;;4823348;29;20524;-76
2023/03/08 07:23:38;;;;;;;3.55;2.10;;;;;;;;;;4839672;29;21725;-74
2023/03/08 07:26:08;;;;;;;6.55;2.40;;;;;;;;;;4844424;29;20123;-75
2023/03/08 07:28:34;;;;;;;5.15;2.10;;;;;;;;;;4840941;29;20062;-75
2023/03/08 07:31:00;;;;;;;7.20;2.03;;;;;;;;;;4839104;29;20064;-74
2023/03/08 07:33:26;;;;;;;3.85;2.05;;;;;;;;;;4843378;29;20051;-75
2023/03/08 07:35:52;;;;;;;3.85;2.22;;;;;;;;;;4822525;29;20127;-82
2023/03/08 07:38:19;;;;;;;4.47;1.90;;;;;;;;;;4827955;29;20573;-75
2023/03/08 07:40:45;;;;;;;4.30;2.00;;;;;;;;;;4848964;29;20124;-75
2023/03/08 07:43:11;;;;;;;3.10;1.90;;;;;;;;;;4835544;29;21542;-75
2023/03/08 07:45:38;;;;;;;9.25;2.60;;;;;;;;;;4833978;29;20055;-76
2023/03/08 07:48:05;;;;;;;3.33;2.42;;;;;;;;;;4846327;29;20055;-75
2023/03/08 07:50:31;;;;;;;4.57;2.67;;;;;;;;;;4848831;29;21643;-75
2023/03/08 07:52:58;;;;;;;5.60;3.20;;;;;;;;;;4826005;29;20048;-75
2023/03/08 07:55:26;;;;;;;4.78;2.72;;;;;;;;;;4832472;29;20044;-75
2023/03/08 07:57:52;;;;;;;6.38;2.88;;;;;;;;;;4851253;29;20068;-76
2023/03/08 08:00:19;;;;;;;6.57;2.50;;;;;;;;;;4846839;29;20044;-75
2023/03/08 08:02:45;;;;;;;7.32;2.70;;;;;;;;;;4850192;29;22249;-75
2023/03/08 08:05:11;;;;;;;5.38;2.92;;;;;;;;;;4847792;29;20494;-75
2023/03/08 08:07:37;;;;;;;9.00;3.45;;;;;;;;;;4852064;29;20045;-76
2023/03/08 08:10:04;;;;;;;10.57;4.32;;;;;;;;;;4849676;29;22261;-76
2023/03/08 08:12:30;;;;;;;6.30;3.60;;;;;;;;;;4851931;29;20127;-76
2023/03/08 08:14:58;;;;;;;8.07;3.70;;;;;;;;;;4846071;29;20101;-76
2023/03/08 08:17:25;;;;;;;6.63;3.95;;;;;;;;;;4849175;29;20091;-75
2023/03/08 08:19:51;;;;;;;7.70;4.93;;;;;;;;;;4846801;29;20060;-75
2023/03/08 08:22:17;;;;;;;11.45;4.93;;;;;;;;;;4852641;29;20048;-76
2023/03/08 08:24:43;;;;;;;9.30;4.85;;;;;;;;;;4853615;29;21805;-75
2023/03/08 08:27:09;;;;;;;11.15;5.30;;;;;;;;;;4856232;29;20919;-75
2023/03/08 08:29:36;;;;;;;7.45;5.47;;;;;;;;;;4852580;29;20048;-76
2023/03/08 08:32:03;;;;;;;11.90;6.10;;;;;;;;;;4851156;29;20036;-76
2023/03/08 08:34:29;;;;;;;9.98;6.65;;;;;;;;;;4839776;29;20043;-76
2023/03/08 08:36:55;;;;;;;9.30;5.45;;;;;;;;;;4852003;29;20102;-76
2023/03/08 08:39:22;;;;;;;8.05;6.25;;;;;;;;;;4851239;29;20397;-74
2023/03/08 08:41:49;;;;;;;9.32;6.38;;;;;;;;;;4850594;29;20044;-74
2023/03/08 08:44:15;;;;;;;11.63;6.20;;;;;;;;;;4851550;29;20052;-74
2023/03/08 08:46:41;;;;;;;9.05;6.50;;;;;;;;;;4852526;29;20041;-74
2023/03/08 08:49:07;;;;;;;11.55;6.57;;;;;;;;;;4865975;29;20121;-74
2023/03/08 08:51:33;;;;;;;11.35;7.22;;;;;;;;;;4852070;29;20163;-74
2023/03/08 08:53:59;;;;;;;10.57;7.25;;;;;;;;;;4850716;29;20044;-74
2023/03/08 08:56:27;;;;;;;8.07;6.50;;;;;;;;;;4850116;29;20053;-74
2023/03/08 08:58:53;;;;;;;7.93;6.68;;;;;;;;;;4849975;29;20085;-74
2023/03/08 09:01:27;;;;;;;10.43;7.13;;;;;;;;;;4839599;29;20557;-74
2023/03/08 09:03:53;;;;;;;10.80;7.40;;;;;;;;;;4848470;29;20061;-74
2023/03/08 09:06:20;;;;;;;10.38;7.38;;;;;;;;;;4866297;29;20056;-74
2023/03/08 09:08:49;;;;;;;10.20;6.70;;;;;;;;;;4853975;29;20112;-74
2023/03/08 09:11:16;;;;;;;9.75;7.00;;;;;;;;;;4850771;29;20068;-74
2023/03/08 09:13:42;;;;;;;12.40;7.15;;;;;;;;;;4836021;29;20108;-74
2023/03/08 09:16:18;;;;;;;10.10;7.68;;;;;;;;;;4853013;29;20505;-73
2023/03/08 09:18:44;;;;;;;12.32;7.30;;;;;;;;;;4844051;29;20076;-73
2023/03/08 09:21:10;;;;;;;10.25;7.57;;;;;;;;;;4848227;29;20521;-74
2023/03/08 09:23:36;;;;;;;7.72;6.50;;;;;;;;;;4849312;29;20048;-74
2023/03/08 09:26:04;;;;;;;7.38;6.60;;;;;;;;;;4836429;29;20790;-73
2023/03/08 09:28:31;;;;;;;10.88;6.97;;;;;;;;;;4847688;29;20149;-73
2023/03/08 09:30:57;;;;;;;12.50;6.85;;;;;;;;;;4832258;29;20469;-74
2023/03/08 09:33:23;;;;;;;10.63;7.30;;;;;;;;;;4862615;29;20738;-74
2023/03/08 09:35:57;;;;;;;9.65;6.90;;;;;;;;;;4848480;29;20621;-74
2023/03/08 09:38:23;;;;;;;7.47;6.50;;;;;;;;;;4846526;29;20064;-73
2023/03/08 09:40:56;;;;;;;8.77;6.30;;;;;;;;;;4848332;29;20275;-73
2023/03/08 09:43:28;;;;;;;10.65;6.60;;;;;;;;;;4863269;29;20048;-73
2023/03/08 09:45:55;;;;;;;8.90;5.68;;;;;;;;;;4846229;29;20509;-73
2023/03/08 09:48:24;;;;;;;9.45;6.03;;;;;;;;;;4861277;29;20109;-71
2023/03/08 09:50:51;;;;;;;8.75;5.82;;;;;;;;;;4846419;29;20263;-71
2023/03/08 09:53:20;;;;;;;8.10;5.35;;;;;;;;;;4847698;29;20052;-71
2023/03/08 09:55:58;;;;;;;10.38;5.40;;;;;;;;;;4847649;29;20048;-72
2023/03/08 09:58:27;;;;;;;7.57;5.75;;;;;;;;;;4850561;29;20060;-72
2023/03/08 10:00:57;;;;;;;9.70;5.15;;;;;;;;;;4849575;29;20056;-71
2023/03/08 10:03:47;;;;;;;6.72;4.68;;;;;;;;;;4837910;29;20064;-71
2023/03/08 10:06:18;;;;;;;7.53;4.30;;;;;;;;;;4853765;29;20053;-71
2023/03/08 10:08:45;;;;;;;6.28;4.43;;;;;;;;;;4863704;29;20049;-70
2023/03/08 10:11:20;;;;;;;6.30;4.60;;;;;;;;;;4865457;29;20060;-71
2023/03/08 10:13:52;;;;;;;6.22;3.70;;;;;;;;;;4856830;29;20104;-72
2023/03/08 10:16:23;;;;;;;5.38;3.80;;;;;;;;;;4851752;29;20079;-72
2023/03/08 10:18:49;;;;;;;6.05;4.28;;;;;;;;;;4865359;29;20046;-72
2023/03/08 10:21:16;;;;;;;5.60;4.50;;;;;;;;;;4852076;29;20100;-71
2023/03/08 10:23:44;;;;;;;6.53;4.30;;;;;;;;;;4851167;29;20052;-72
2023/03/08 10:26:12;;;;;;;4.90;3.72;;;;;;;;;;4853040;29;20186;-72
2023/03/08 10:28:38;;;;;;;6.07;4.10;;;;;;;;;;4857201;29;20045;-72
2023/03/08 10:31:24;;;;;;;5.95;3.97;;;;;;;;;;4851618;29;20128;-72
2023/03/08 10:33:58;;;;;;;7.32;3.95;;;;;;;;;;4851133;29;20049;-72
2023/03/08 10:36:25;;;;;;;5.57;3.65;;;;;;;;;;4848179;29;21725;-72
2023/03/08 10:39:00;;;;;;;5.97;3.90;;;;;;;;;;4848251;29;20053;-72
2023/03/08 10:41:27;;;;;;;3.90;3.42;;;;;;;;;;4863110;29;20434;-72
2023/03/08 10:43:54;;;;;;;4.05;3.63;;;;;;;;;;4850505;29;20070;-72
2023/03/08 10:46:25;;;;;;;4.05;3.00;;;;;;;;;;4853346;29;20057;-73
2023/03/08 10:48:51;;;;;;;5.55;2.80;;;;;;;;;;4852546;29;20049;-72
2023/03/08 10:51:22;;;;;;;4.88;3.00;;;;;;;;;;4867946;29;20052;-73
2023/03/08 10:53:53;;;;;;;6.10;3.05;;;;;;;;;;4853015;29;20750;-73
2023/03/08 10:56:24;;;;;;;5.10;2.67;;;;;;;;;;4852666;29;20068;-74
2023/03/08 10:58:53;;;;;;;4.47;2.90;;;;;;;;;;4859729;29;20578;-74
2023/03/08 11:01:33;;;;;;;5.53;2.90;;;;;;;;;;4852603;29;20573;-74
2023/03/08 11:03:59;;;;;;;6.43;3.40;;;;;;;;;;4851378;29;20044;-74
2023/03/08 11:06:25;;;;;;;4.85;3.22;;;;;;;;;;4853878;29;20601;-74
2023/03/08 11:08:53;;;;;;;6.75;3.88;;;;;;;;;;4867597;29;20410;-74
2023/03/08 11:11:20;;;;;;;8.98;3.30;;;;;;;;;;4851524;29;20071;-74
2023/03/08 11:13:47;;;;;;;6.25;2.80;;;;;;;;;;4850490;29;20045;-74
2023/03/08 11:16:25;;;;;;;5.90;2.50;;;;;;;;;;4855872;29;20672;-74
2023/03/08 11:19:01;;;;;;;5.80;2.30;;;;;;;;;;4851388;29;20040;-74
2023/03/08 11:21:30;;;;;;;3.30;1.83;;;;;;;;;;4855946;29;20131;-74
2023/03/08 11:23:56;;;;;;;4.05;2.20;;;;;;;;;;4851087;29;20063;-74
2023/03/08 11:26:29;;;;;;;5.63;2.30;;;;;;;;;;4853089;29;20085;-73
2023/03/08 11:29:01;;;;;;;6.45;2.13;;;;;;;;;;4851486;29;20056;-74
2023/03/08 11:31:27;;;;;;;6.40;4.07;;;;;;;;;;4851057;29;20513;-74
2023/03/08 11:33:53;;;;;;;9.10;3.40;;;;;;;;;;4852145;29;20084;-74
2023/03/08 11:36:19;;;;;;;4.18;2.85;;;;;;;;;;4866910;29;20645;-74
2023/03/08 11:38:51;;;;;;;7.30;4.10;;;;;;;;;;4852218;29;20055;-74
2023/03/08 11:41:27;;;;;;;5.93;2.67;;;;;;;;;;4852182;29;20049;-74
2023/03/08 11:44:12;;;;;;;26.95;17.35;;;;;;;;;;4868012;29;20171;-74
2023/03/08 11:46:50;;;;;;;13.15;3.35;;;;;;;;;;4838780;29;20693;-74
2023/03/08 11:49:28;;;;;;;4.30;2.00;;;;;;;;;;4854002;29;20097;-74
2023/03/08 11:51:59;;;;;;;3.80;1.92;;;;;;;;;;4853725;29;20040;-74
2023/03/08 11:54:48;;;;;;;2.92;1.75;;;;;;;;;;4868071;29;20041;-74
2023/03/08 11:57:16;;;;;;;5.75;3.00;;;;;;;;;;4847533;29;20056;-74
2023/03/08 11:59:56;;;;;;;7.03;4.10;;;;;;;;;;4850982;29;20141;-74
2023/03/08 12:02:22;;;;;;;6.55;4.25;;;;;;;;;;4850930;29;20044;-74
2023/03/08 12:04:51;;;;;;;4.88;3.33;;;;;;;;;;4850867;29;20059;-74
2023/03/08 12:07:20;;;;;;;10.18;5.07;;;;;;;;;;4850210;29;20065;-74
2023/03/08 12:09:53;;;;;;;6.03;3.90;;;;;;;;;;4866815;29;20081;-74
2023/03/08 12:12:26;;;;;;;10.80;6.97;;;;;;;;;;4859403;29;20052;-74
2023/03/08 12:15:01;;;;;;;7.72;3.95;;;;;;;;;;4845725;29;20486;-74
2023/03/08 12:17:35;;;;;;;14.68;4.78;;;;;;;;;;4864190;29;20131;-80
2023/03/08 12:20:05;;;;;;;;;;;;;;;;;;4850696;29;20060;-73
2023/03/08 12:22:40;;;;;;;8.82;3.97;;;;;;;;;;4845624;29;19971;-73
2023/03/08 12:25:15;;;;;;;7.95;2.97;;;;;;;;;;4832285;29;20714;-73
2023/03/08 12:28:16;;;;;;;5.45;2.80;;;;;;;;;;4847463;29;20059;-73
2023/03/08 12:30:51;;;;;;;6.80;2.90;;;;;;;;;;4819366;29;20509;-73
2023/03/08 12:33:18;;;;;;;5.75;3.53;;;;;;;;;;4850340;29;20155;-73
2023/03/08 12:35:54;;;;;;;11.52;4.18;;;;;;;;;;4842441;29;20045;-73
2023/03/08 12:38:20;;;;;;;7.00;2.38;;;;;;;;;;4854789;29;20121;-73
2023/03/08 12:40:51;;;;;;;5.45;3.55;;;;;;;;;;4846542;29;20138;-73
2023/03/08 12:43:17;;;;;;;13.10;6.07;;;;;;;;;;4848242;29;20064;-73
2023/03/08 12:45:44;;;;;;;8.55;3.00;;;;;;;;;;4847895;29;20053;-72
2023/03/08 12:48:16;;;;;;;5.40;2.03;;;;;;;;;;4848980;29;20052;-72
2023/03/08 12:50:44;;;;;;;6.95;2.10;;;;;;;;;;4849323;29;21875;-73
2023/03/08 12:53:20;;;;;;;9.35;2.22;;;;;;;;;;4864608;29;20896;-72
2023/03/08 12:55:58;;;;;;;4.68;1.70;;;;;;;;;;4853928;29;20067;-72
2023/03/08 12:58:24;;;;;;;3.30;0.80;;;;;;;;;;4863771;29;20088;-73
2023/03/08 13:00:57;;;;;;;2.33;0.93;;;;;;;;;;4830599;29;20253;-72
2023/03/08 13:03:23;;;;;;;4.43;0.98;;;;;;;;;;4846213;29;21017;-73
2023/03/08 13:05:49;;;;;;;3.30;0.88;;;;;;;;;;4843407;29;21834;-73
2023/03/08 13:08:15;;;;;;;2.60;0.95;;;;;;;;;;4847643;29;20572;-72
2023/03/08 13:10:57;;;;;;;3.95;1.02;;;;;;;;;;4847552;29;20532;-72
2023/03/08 13:13:32;;;;;;;4.95;2.20;;;;;;;;;;4860435;29;20067;-72
2023/03/08 13:16:24;;;;;;;2.38;0.95;;;;;;;;;;4845525;29;20048;-72
2023/03/08 13:19:00;;;;;;;4.88;1.27;;;;;;;;;;4840869;29;20577;-72
2023/03/08 13:21:33;;;;;;;2.92;0.80;;;;;;;;;;4860489;29;20703;-72
2023/03/08 13:24:13;;;;;;;3.13;1.00;;;;;;;;;;4846380;29;20103;-72
2023/03/08 13:26:54;;;;;;;7.75;1.67;;;;;;;;;;4863223;29;20636;-72
2023/03/08 13:29:20;;;;;;;2.22;0.73;;;;;;;;;;4866424;29;20686;-72
2023/03/08 13:31:47;;;;;;;1.50;0.63;;;;;;;;;;4853273;29;20121;-75
2023/03/08 13:34:24;;;;;;;1.83;0.77;;;;;;;;;;4837359;29;20045;-74
2023/03/08 13:36:50;;;;;;;0.70;0.47;;;;;;;;;;4864937;29;20123;-74
2023/03/08 13:39:20;;;;;;;5.60;0.80;;;;;;;;;;4851352;29;20045;-75
2023/03/08 13:41:47;;;;;;;4.82;0.98;;;;;;;;;;4851186;29;20049;-74
2023/03/08 13:44:32;;;;;;;4.68;1.38;;;;;;;;;;4850660;29;20076;-75
2023/03/08 13:47:01;;;;;;;5.97;0.90;;;;;;;;;;4850464;29;20056;-76
2023/03/08 13:49:31;;;;;;;3.63;1.05;;;;;;;;;;4849761;29;20040;-75
2023/03/08 13:52:02;;;;;;;7.72;0.90;;;;;;;;;;4850844;29;20511;-75
2023/03/08 13:54:41;;;;;;;4.22;0.60;;;;;;;;;;4841389;29;20505;-75
2023/03/08 13:57:18;;;;;;;3.47;0.50;;;;;;;;;;4844872;29;20053;-75
2023/03/08 13:59:47;;;;;;;2.15;0.65;;;;;;;;;;4844546;29;20053;-75
2023/03/08 14:02:21;;;;;;;3.72;0.50;;;;;;;;;;4834191;29;20510;-76
2023/03/08 14:04:47;;;;;;;4.72;0.80;;;;;;;;;;4843876;29;20060;-75
2023/03/08 14:07:21;;;;;;;7.88;0.75;;;;;;;;;;4844184;29;20325;-75
2023/03/08 14:09:47;;;;;;;2.78;0.75;;;;;;;;;;4843158;29;20493;-75
2023/03/08 14:12:18;;;;;;;6.10;1.00;;;;;;;;;;4843975;29;20049;-75
2023/03/08 14:14:46;;;;;;;2.53;1.00;;;;;;;;;;4843563;29;20052;-75
2023/03/08 14:17:18;;;;;;;5.28;1.73;;;;;;;;;;4843401;29;20478;-75
2023/03/08 14:19:44;;;;;;;64.75;28.92;;;;;;;;;;4844381;29;20049;-75
2023/03/08 14:22:16;;;;;;;27.00;13.98;;;;;;;;;;4859304;29;20128;-75
2023/03/08 14:24:48;;;;;;;6.22;1.48;;;;;;;;;;4844532;29;21618;-75
2023/03/08 14:27:14;;;;;;;6.05;2.72;;;;;;;;;;4844293;29;20157;-75
2023/03/08 14:29:41;;;;;;;8.27;3.85;;;;;;;;;;4846954;29;20152;-75
2023/03/08 14:32:10;;;;;;;5.03;1.70;;;;;;;;;;4846092;29;20041;-75
2023/03/08 14:34:46;;;;;;;6.28;3.42;;;;;;;;;;4851507;29;20056;-75
2023/03/08 14:37:21;;;;;;;8.63;4.68;;;;;;;;;;4850697;29;20048;-75
2023/03/08 14:39:48;;;;;;;6.78;4.65;;;;;;;;;;4846327;29;20388;-75
2023/03/08 14:42:23;;;;;;;15.55;6.03;;;;;;;;;;4843575;29;20041;-75
2023/03/08 14:44:51;;;;;;;7.88;4.13;;;;;;;;;;4842806;29;20063;-75
2023/03/08 14:47:28;;;;;;;5.72;3.55;;;;;;;;;;4839636;29;20528;-75